sensor_id;sensor_type;location;lat;lon;timestamp;P1;durP1;ratioP1;P2;durP2;ratioP2
50393;SDS011;36308;46.312;25.288;2022-11-14T00:00:03;18.52;;;9.70;;
50393;SDS011;36308;46.312;25.288;2022-11-14T00:02:30;18.63;;;10.00;;
50393;SDS011;36308;46.312;25.288;2022-11-14T00:04:56;17.45;;;10.77;;
50393;SDS011;36308;46.312;25.288;2022-11-14T00:07:21;18.02;;;10.50;;
50393;SDS011;36308;46.312;25.288;2022-11-14T00:09:46;17.67;;;10.73;;
50393;SDS011;36308;46.312;25.288;2022-11-14T00:12:12;21.77;;;11.13;;
50393;SDS011;36308;46.312;25.288;2022-11-14T00:14:37;18.88;;;10.45;;
50393;SDS011;36308;46.312;25.288;2022-11-14T00:17:03;21.65;;;10.35;;
50393;SDS011;36308;46.312;25.288;2022-11-14T00:19:30;18.58;;;11.27;;
50393;SDS011;36308;46.312;25.288;2022-11-14T00:21:55;19.73;;;10.45;;
50393;SDS011;36308;46.312;25.288;2022-11-14T00:24:21;18.90;;;10.90;;
50393;SDS011;36308;46.312;25.288;2022-11-14T00:26:46;19.00;;;9.90;;
50393;SDS011;36308;46.312;25.288;2022-11-14T00:29:12;18.10;;;9.50;;
50393;SDS011;36308;46.312;25.288;2022-11-14T00:31:39;17.58;;;9.65;;
50393;SDS011;36308;46.312;25.288;2022-11-14T00:34:05;17.83;;;9.95;;
50393;SDS011;36308;46.312;25.288;2022-11-14T00:36:31;17.20;;;9.55;;
50393;SDS011;36308;46.312;25.288;2022-11-14T00:38:56;18.90;;;9.95;;
50393;SDS011;36308;46.312;25.288;2022-11-14T00:41:22;15.57;;;9.18;;
50393;SDS011;36308;46.312;25.288;2022-11-14T00:43:47;16.63;;;9.25;;
50393;SDS011;36308;46.312;25.288;2022-11-14T00:46:13;17.83;;;9.75;;
50393;SDS011;36308;46.312;25.288;2022-11-14T00:48:38;17.80;;;9.82;;
50393;SDS011;36308;46.312;25.288;2022-11-14T00:51:04;17.83;;;9.52;;
50393;SDS011;36308;46.312;25.288;2022-11-14T00:53:30;26.23;;;12.90;;
50393;SDS011;36308;46.312;25.288;2022-11-14T00:55:55;24.75;;;11.63;;
50393;SDS011;36308;46.312;25.288;2022-11-14T00:58:20;23.92;;;12.43;;
50393;SDS011;36308;46.312;25.288;2022-11-14T01:00:46;18.48;;;9.15;;
50393;SDS011;36308;46.312;25.288;2022-11-14T01:03:12;19.35;;;10.40;;
50393;SDS011;36308;46.312;25.288;2022-11-14T01:05:41;18.70;;;9.75;;
50393;SDS011;36308;46.312;25.288;2022-11-14T01:08:07;22.38;;;10.15;;
50393;SDS011;36308;46.312;25.288;2022-11-14T01:10:33;22.00;;;11.90;;
50393;SDS011;36308;46.312;25.288;2022-11-14T01:12:58;17.95;;;9.95;;
50393;SDS011;36308;46.312;25.288;2022-11-14T01:15:24;24.70;;;10.10;;
50393;SDS011;36308;46.312;25.288;2022-11-14T01:17:49;23.40;;;10.65;;
50393;SDS011;36308;46.312;25.288;2022-11-14T01:20:15;15.65;;;9.52;;
50393;SDS011;36308;46.312;25.288;2022-11-14T01:22:40;18.83;;;10.35;;
50393;SDS011;36308;46.312;25.288;2022-11-14T01:25:06;28.33;;;14.25;;
50393;SDS011;36308;46.312;25.288;2022-11-14T01:27:32;30.85;;;16.02;;
50393;SDS011;36308;46.312;25.288;2022-11-14T01:29:57;30.77;;;15.05;;
50393;SDS011;36308;46.312;25.288;2022-11-14T01:32:23;29.17;;;16.58;;
50393;SDS011;36308;46.312;25.288;2022-11-14T01:34:50;30.63;;;15.65;;
50393;SDS011;36308;46.312;25.288;2022-11-14T01:37:15;29.15;;;16.02;;
50393;SDS011;36308;46.312;25.288;2022-11-14T01:39:41;27.48;;;15.88;;
50393;SDS011;36308;46.312;25.288;2022-11-14T01:42:06;26.58;;;14.20;;
50393;SDS011;36308;46.312;25.288;2022-11-14T01:44:48;23.50;;;13.93;;
50393;SDS011;36308;46.312;25.288;2022-11-14T01:47:26;22.13;;;12.45;;
50393;SDS011;36308;46.312;25.288;2022-11-14T01:49:56;24.27;;;12.75;;
50393;SDS011;36308;46.312;25.288;2022-11-14T01:52:24;23.77;;;14.48;;
50393;SDS011;36308;46.312;25.288;2022-11-14T01:54:57;16.50;;;10.00;;
50393;SDS011;36308;46.312;25.288;2022-11-14T01:57:28;21.70;;;12.70;;
50393;SDS011;36308;46.312;25.288;2022-11-14T01:59:58;21.55;;;11.38;;
50393;SDS011;36308;46.312;25.288;2022-11-14T02:02:28;19.58;;;11.70;;
50393;SDS011;36308;46.312;25.288;2022-11-14T02:04:58;21.90;;;11.43;;
50393;SDS011;36308;46.312;25.288;2022-11-14T02:07:27;18.00;;;10.38;;
50393;SDS011;36308;46.312;25.288;2022-11-14T02:09:56;19.65;;;10.27;;
50393;SDS011;36308;46.312;25.288;2022-11-14T02:12:26;17.92;;;9.35;;
50393;SDS011;36308;46.312;25.288;2022-11-14T02:14:52;15.02;;;9.32;;
50393;SDS011;36308;46.312;25.288;2022-11-14T02:17:20;14.45;;;8.32;;
50393;SDS011;36308;46.312;25.288;2022-11-14T02:19:53;13.20;;;7.68;;
50393;SDS011;36308;46.312;25.288;2022-11-14T02:22:21;14.98;;;7.90;;
50393;SDS011;36308;46.312;25.288;2022-11-14T02:24:47;13.20;;;7.45;;
50393;SDS011;36308;46.312;25.288;2022-11-14T02:27:13;14.05;;;7.32;;
50393;SDS011;36308;46.312;25.288;2022-11-14T02:29:39;14.27;;;7.50;;
50393;SDS011;36308;46.312;25.288;2022-11-14T02:32:05;16.23;;;9.07;;
50393;SDS011;36308;46.312;25.288;2022-11-14T02:34:31;14.93;;;8.07;;
50393;SDS011;36308;46.312;25.288;2022-11-14T02:36:56;14.82;;;8.38;;
50393;SDS011;36308;46.312;25.288;2022-11-14T02:39:22;17.63;;;8.98;;
50393;SDS011;36308;46.312;25.288;2022-11-14T02:41:51;16.35;;;8.55;;
50393;SDS011;36308;46.312;25.288;2022-11-14T02:44:16;14.25;;;7.72;;
50393;SDS011;36308;46.312;25.288;2022-11-14T02:46:43;14.43;;;8.25;;
50393;SDS011;36308;46.312;25.288;2022-11-14T02:49:08;15.75;;;7.95;;
50393;SDS011;36308;46.312;25.288;2022-11-14T02:51:34;16.85;;;7.47;;
50393;SDS011;36308;46.312;25.288;2022-11-14T02:53:59;15.88;;;7.32;;
50393;SDS011;36308;46.312;25.288;2022-11-14T02:56:25;14.13;;;8.38;;
50393;SDS011;36308;46.312;25.288;2022-11-14T02:58:50;14.25;;;7.95;;
50393;SDS011;36308;46.312;25.288;2022-11-14T03:01:15;21.27;;;12.23;;
50393;SDS011;36308;46.312;25.288;2022-11-14T03:03:41;26.00;;;14.10;;
50393;SDS011;36308;46.312;25.288;2022-11-14T03:06:06;28.88;;;14.60;;
50393;SDS011;36308;46.312;25.288;2022-11-14T03:08:32;28.05;;;14.90;;
50393;SDS011;36308;46.312;25.288;2022-11-14T03:11:07;26.70;;;15.25;;
50393;SDS011;36308;46.312;25.288;2022-11-14T03:13:33;28.65;;;14.65;;
50393;SDS011;36308;46.312;25.288;2022-11-14T03:16:06;29.83;;;15.60;;
50393;SDS011;36308;46.312;25.288;2022-11-14T03:18:32;27.15;;;14.60;;
50393;SDS011;36308;46.312;25.288;2022-11-14T03:21:08;23.67;;;14.07;;
50393;SDS011;36308;46.312;25.288;2022-11-14T03:23:36;24.05;;;13.52;;
50393;SDS011;36308;46.312;25.288;2022-11-14T03:26:02;19.30;;;10.10;;
50393;SDS011;36308;46.312;25.288;2022-11-14T03:28:29;17.00;;;9.73;;
50393;SDS011;36308;46.312;25.288;2022-11-14T03:30:55;14.32;;;7.07;;
50393;SDS011;36308;46.312;25.288;2022-11-14T03:33:21;13.30;;;7.60;;
50393;SDS011;36308;46.312;25.288;2022-11-14T03:35:48;14.52;;;8.38;;
50393;SDS011;36308;46.312;25.288;2022-11-14T03:38:15;17.33;;;10.05;;
50393;SDS011;36308;46.312;25.288;2022-11-14T03:40:41;17.13;;;9.73;;
50393;SDS011;36308;46.312;25.288;2022-11-14T03:43:06;18.83;;;10.68;;
50393;SDS011;36308;46.312;25.288;2022-11-14T03:45:32;19.05;;;11.82;;
50393;SDS011;36308;46.312;25.288;2022-11-14T03:47:57;21.35;;;12.10;;
50393;SDS011;36308;46.312;25.288;2022-11-14T03:50:23;21.77;;;12.43;;
50393;SDS011;36308;46.312;25.288;2022-11-14T03:52:48;24.85;;;14.95;;
50393;SDS011;36308;46.312;25.288;2022-11-14T03:55:14;23.10;;;14.50;;
50393;SDS011;36308;46.312;25.288;2022-11-14T03:57:40;26.33;;;14.63;;
50393;SDS011;36308;46.312;25.288;2022-11-14T04:00:05;21.70;;;11.50;;
50393;SDS011;36308;46.312;25.288;2022-11-14T04:02:31;18.02;;;9.80;;
50393;SDS011;36308;46.312;25.288;2022-11-14T04:04:57;18.05;;;9.73;;
50393;SDS011;36308;46.312;25.288;2022-11-14T04:07:22;20.55;;;9.10;;
50393;SDS011;36308;46.312;25.288;2022-11-14T04:09:47;15.10;;;7.05;;
50393;SDS011;36308;46.312;25.288;2022-11-14T04:12:13;13.52;;;7.15;;
50393;SDS011;36308;46.312;25.288;2022-11-14T04:14:38;14.98;;;6.78;;
50393;SDS011;36308;46.312;25.288;2022-11-14T04:17:03;13.23;;;6.38;;
50393;SDS011;36308;46.312;25.288;2022-11-14T04:19:29;11.30;;;6.18;;
50393;SDS011;36308;46.312;25.288;2022-11-14T04:21:54;18.15;;;7.05;;
50393;SDS011;36308;46.312;25.288;2022-11-14T04:24:20;12.15;;;6.97;;
50393;SDS011;36308;46.312;25.288;2022-11-14T04:26:45;12.63;;;7.20;;
50393;SDS011;36308;46.312;25.288;2022-11-14T04:29:11;15.45;;;8.65;;
50393;SDS011;36308;46.312;25.288;2022-11-14T04:31:36;14.98;;;9.90;;
50393;SDS011;36308;46.312;25.288;2022-11-14T04:34:01;15.75;;;9.07;;
50393;SDS011;36308;46.312;25.288;2022-11-14T04:36:27;14.52;;;8.73;;
50393;SDS011;36308;46.312;25.288;2022-11-14T04:38:53;15.27;;;7.18;;
50393;SDS011;36308;46.312;25.288;2022-11-14T04:41:18;14.35;;;6.28;;
50393;SDS011;36308;46.312;25.288;2022-11-14T04:43:43;13.45;;;6.80;;
50393;SDS011;36308;46.312;25.288;2022-11-14T04:46:09;12.45;;;6.82;;
50393;SDS011;36308;46.312;25.288;2022-11-14T04:48:34;10.98;;;6.00;;
50393;SDS011;36308;46.312;25.288;2022-11-14T04:51:00;13.65;;;6.55;;
50393;SDS011;36308;46.312;25.288;2022-11-14T04:53:25;12.80;;;6.50;;
50393;SDS011;36308;46.312;25.288;2022-11-14T04:55:50;11.50;;;6.15;;
50393;SDS011;36308;46.312;25.288;2022-11-14T04:58:16;10.38;;;6.38;;
50393;SDS011;36308;46.312;25.288;2022-11-14T05:00:41;13.73;;;7.53;;
50393;SDS011;36308;46.312;25.288;2022-11-14T05:03:07;11.85;;;7.18;;
50393;SDS011;36308;46.312;25.288;2022-11-14T05:05:32;28.65;;;15.63;;
50393;SDS011;36308;46.312;25.288;2022-11-14T05:07:58;39.15;;;22.17;;
50393;SDS011;36308;46.312;25.288;2022-11-14T05:10:23;43.28;;;23.10;;
50393;SDS011;36308;46.312;25.288;2022-11-14T05:12:51;37.55;;;20.48;;
50393;SDS011;36308;46.312;25.288;2022-11-14T05:15:17;31.98;;;19.30;;
50393;SDS011;36308;46.312;25.288;2022-11-14T05:17:42;32.28;;;17.38;;
50393;SDS011;36308;46.312;25.288;2022-11-14T05:20:08;28.15;;;16.42;;
50393;SDS011;36308;46.312;25.288;2022-11-14T05:22:34;35.45;;;19.67;;
50393;SDS011;36308;46.312;25.288;2022-11-14T05:24:59;31.15;;;18.70;;
50393;SDS011;36308;46.312;25.288;2022-11-14T05:27:25;35.28;;;19.48;;
50393;SDS011;36308;46.312;25.288;2022-11-14T05:29:50;34.72;;;19.80;;
50393;SDS011;36308;46.312;25.288;2022-11-14T05:32:15;80.57;;;41.78;;
50393;SDS011;36308;46.312;25.288;2022-11-14T05:34:41;74.65;;;37.38;;
50393;SDS011;36308;46.312;25.288;2022-11-14T05:37:06;58.00;;;30.67;;
50393;SDS011;36308;46.312;25.288;2022-11-14T05:39:32;44.70;;;24.23;;
50393;SDS011;36308;46.312;25.288;2022-11-14T05:41:58;31.88;;;18.58;;
50393;SDS011;36308;46.312;25.288;2022-11-14T05:44:23;27.65;;;13.32;;
50393;SDS011;36308;46.312;25.288;2022-11-14T05:46:48;20.45;;;12.55;;
50393;SDS011;36308;46.312;25.288;2022-11-14T05:49:14;21.67;;;11.70;;
50393;SDS011;36308;46.312;25.288;2022-11-14T05:51:39;25.63;;;13.95;;
50393;SDS011;36308;46.312;25.288;2022-11-14T05:54:05;25.40;;;14.20;;
50393;SDS011;36308;46.312;25.288;2022-11-14T05:56:30;25.20;;;12.98;;
50393;SDS011;36308;46.312;25.288;2022-11-14T05:58:55;28.70;;;15.13;;
50393;SDS011;36308;46.312;25.288;2022-11-14T06:01:21;81.55;;;34.72;;
50393;SDS011;36308;46.312;25.288;2022-11-14T06:03:46;65.18;;;30.83;;
50393;SDS011;36308;46.312;25.288;2022-11-14T06:06:17;65.57;;;31.30;;
50393;SDS011;36308;46.312;25.288;2022-11-14T06:08:44;91.85;;;43.47;;
50393;SDS011;36308;46.312;25.288;2022-11-14T06:11:11;91.38;;;42.45;;
50393;SDS011;36308;46.312;25.288;2022-11-14T06:13:38;104.55;;;52.08;;
50393;SDS011;36308;46.312;25.288;2022-11-14T06:16:11;85.40;;;42.25;;
50393;SDS011;36308;46.312;25.288;2022-11-14T06:18:38;70.95;;;36.28;;
50393;SDS011;36308;46.312;25.288;2022-11-14T06:21:05;51.83;;;29.05;;
50393;SDS011;36308;46.312;25.288;2022-11-14T06:23:34;48.75;;;26.27;;
50393;SDS011;36308;46.312;25.288;2022-11-14T06:26:03;50.00;;;29.60;;
50393;SDS011;36308;46.312;25.288;2022-11-14T06:28:30;69.00;;;33.75;;
50393;SDS011;36308;46.312;25.288;2022-11-14T06:31:00;60.38;;;33.97;;
50393;SDS011;36308;46.312;25.288;2022-11-14T06:33:27;109.40;;;52.28;;
50393;SDS011;36308;46.312;25.288;2022-11-14T06:35:57;139.77;;;63.97;;
50393;SDS011;36308;46.312;25.288;2022-11-14T06:38:24;99.82;;;50.08;;
50393;SDS011;36308;46.312;25.288;2022-11-14T06:40:50;101.43;;;51.40;;
50393;SDS011;36308;46.312;25.288;2022-11-14T06:43:15;88.78;;;44.25;;
50393;SDS011;36308;46.312;25.288;2022-11-14T06:45:41;83.10;;;42.13;;
50393;SDS011;36308;46.312;25.288;2022-11-14T06:48:06;98.25;;;50.03;;
50393;SDS011;36308;46.312;25.288;2022-11-14T06:50:32;103.55;;;50.97;;
50393;SDS011;36308;46.312;25.288;2022-11-14T06:52:57;114.15;;;57.15;;
50393;SDS011;36308;46.312;25.288;2022-11-14T06:55:23;106.35;;;57.88;;
50393;SDS011;36308;46.312;25.288;2022-11-14T06:57:55;108.53;;;57.03;;
50393;SDS011;36308;46.312;25.288;2022-11-14T07:00:20;121.03;;;60.65;;
50393;SDS011;36308;46.312;25.288;2022-11-14T07:02:47;119.32;;;62.72;;
50393;SDS011;36308;46.312;25.288;2022-11-14T07:05:13;149.50;;;76.25;;
50393;SDS011;36308;46.312;25.288;2022-11-14T07:07:39;132.68;;;71.70;;
50393;SDS011;36308;46.312;25.288;2022-11-14T07:10:04;127.65;;;66.65;;
50393;SDS011;36308;46.312;25.288;2022-11-14T07:12:30;75.35;;;41.70;;
50393;SDS011;36308;46.312;25.288;2022-11-14T07:14:56;65.13;;;36.38;;
50393;SDS011;36308;46.312;25.288;2022-11-14T07:17:22;70.68;;;39.58;;
50393;SDS011;36308;46.312;25.288;2022-11-14T07:19:47;72.97;;;40.88;;
50393;SDS011;36308;46.312;25.288;2022-11-14T07:22:13;78.30;;;44.05;;
50393;SDS011;36308;46.312;25.288;2022-11-14T07:24:38;80.75;;;46.90;;
50393;SDS011;36308;46.312;25.288;2022-11-14T07:27:03;91.90;;;50.70;;
50393;SDS011;36308;46.312;25.288;2022-11-14T07:29:32;95.72;;;50.17;;
50393;SDS011;36308;46.312;25.288;2022-11-14T07:31:58;86.95;;;48.50;;
50393;SDS011;36308;46.312;25.288;2022-11-14T07:34:23;85.32;;;50.38;;
50393;SDS011;36308;46.312;25.288;2022-11-14T07:36:48;85.00;;;50.90;;
50393;SDS011;36308;46.312;25.288;2022-11-14T07:39:14;95.25;;;54.20;;
50393;SDS011;36308;46.312;25.288;2022-11-14T07:41:40;88.65;;;52.63;;
50393;SDS011;36308;46.312;25.288;2022-11-14T07:44:05;88.57;;;50.13;;
50393;SDS011;36308;46.312;25.288;2022-11-14T07:46:31;74.05;;;45.33;;
50393;SDS011;36308;46.312;25.288;2022-11-14T07:48:56;75.50;;;44.15;;
50393;SDS011;36308;46.312;25.288;2022-11-14T07:51:22;68.93;;;40.45;;
50393;SDS011;36308;46.312;25.288;2022-11-14T07:53:47;64.43;;;35.30;;
50393;SDS011;36308;46.312;25.288;2022-11-14T07:56:12;56.00;;;31.40;;
50393;SDS011;36308;46.312;25.288;2022-11-14T07:58:39;52.80;;;30.38;;
50393;SDS011;36308;46.312;25.288;2022-11-14T08:01:06;51.47;;;28.25;;
50393;SDS011;36308;46.312;25.288;2022-11-14T08:03:33;58.35;;;30.13;;
50393;SDS011;36308;46.312;25.288;2022-11-14T08:06:09;49.08;;;29.48;;
50393;SDS011;36308;46.312;25.288;2022-11-14T08:08:36;47.25;;;27.38;;
50393;SDS011;36308;46.312;25.288;2022-11-14T08:11:02;47.55;;;25.75;;
50393;SDS011;36308;46.312;25.288;2022-11-14T08:13:28;40.00;;;24.45;;
50393;SDS011;36308;46.312;25.288;2022-11-14T08:15:54;43.70;;;25.80;;
50393;SDS011;36308;46.312;25.288;2022-11-14T08:18:20;34.75;;;20.63;;
50393;SDS011;36308;46.312;25.288;2022-11-14T08:20:45;104.75;;;25.92;;
50393;SDS011;36308;46.312;25.288;2022-11-14T08:23:11;40.38;;;23.73;;
50393;SDS011;36308;46.312;25.288;2022-11-14T08:25:37;42.17;;;25.17;;
50393;SDS011;36308;46.312;25.288;2022-11-14T08:28:03;41.55;;;23.45;;
50393;SDS011;36308;46.312;25.288;2022-11-14T08:30:29;47.00;;;24.25;;
50393;SDS011;36308;46.312;25.288;2022-11-14T08:32:54;39.95;;;24.35;;
50393;SDS011;36308;46.312;25.288;2022-11-14T08:35:20;38.65;;;26.48;;
50393;SDS011;36308;46.312;25.288;2022-11-14T08:37:46;44.47;;;25.52;;
50393;SDS011;36308;46.312;25.288;2022-11-14T08:40:11;43.10;;;26.17;;
50393;SDS011;36308;46.312;25.288;2022-11-14T08:42:37;46.05;;;30.13;;
50393;SDS011;36308;46.312;25.288;2022-11-14T08:45:03;51.97;;;31.98;;
50393;SDS011;36308;46.312;25.288;2022-11-14T08:47:30;38.55;;;25.70;;
50393;SDS011;36308;46.312;25.288;2022-11-14T08:49:55;45.22;;;28.02;;
50393;SDS011;36308;46.312;25.288;2022-11-14T08:52:20;46.25;;;30.42;;
50393;SDS011;36308;46.312;25.288;2022-11-14T08:54:46;45.67;;;29.92;;
50393;SDS011;36308;46.312;25.288;2022-11-14T08:57:11;52.65;;;34.63;;
50393;SDS011;36308;46.312;25.288;2022-11-14T08:59:39;49.72;;;33.50;;
50393;SDS011;36308;46.312;25.288;2022-11-14T09:02:05;52.05;;;32.05;;
50393;SDS011;36308;46.312;25.288;2022-11-14T09:04:30;52.88;;;32.45;;
50393;SDS011;36308;46.312;25.288;2022-11-14T09:06:56;37.42;;;22.13;;
50393;SDS011;36308;46.312;25.288;2022-11-14T09:09:22;34.30;;;21.27;;
50393;SDS011;36308;46.312;25.288;2022-11-14T09:11:48;36.83;;;22.02;;
50393;SDS011;36308;46.312;25.288;2022-11-14T09:14:13;41.13;;;22.63;;
50393;SDS011;36308;46.312;25.288;2022-11-14T09:16:39;36.25;;;24.23;;
50393;SDS011;36308;46.312;25.288;2022-11-14T09:19:04;36.95;;;24.17;;
50393;SDS011;36308;46.312;25.288;2022-11-14T09:21:30;42.45;;;27.15;;
50393;SDS011;36308;46.312;25.288;2022-11-14T09:23:55;41.45;;;26.13;;
50393;SDS011;36308;46.312;25.288;2022-11-14T09:26:20;38.30;;;25.75;;
50393;SDS011;36308;46.312;25.288;2022-11-14T09:28:46;48.67;;;28.77;;
50393;SDS011;36308;46.312;25.288;2022-11-14T09:31:12;48.85;;;32.63;;
50393;SDS011;36308;46.312;25.288;2022-11-14T09:33:38;47.20;;;32.05;;
50393;SDS011;36308;46.312;25.288;2022-11-14T09:36:04;46.58;;;31.75;;
50393;SDS011;36308;46.312;25.288;2022-11-14T09:38:32;38.67;;;26.05;;
50393;SDS011;36308;46.312;25.288;2022-11-14T09:46:40;27.77;;;18.00;;
50393;SDS011;36308;46.312;25.288;2022-11-14T09:55:13;29.45;;;18.95;;
50393;SDS011;36308;46.312;25.288;2022-11-14T09:57:42;18.95;;;13.73;;
50393;SDS011;36308;46.312;25.288;2022-11-14T10:10:53;23.08;;;14.75;;
50393;SDS011;36308;46.312;25.288;2022-11-14T10:15:55;16.90;;;11.32;;
50393;SDS011;36308;46.312;25.288;2022-11-14T10:20:59;14.50;;;9.32;;
50393;SDS011;36308;46.312;25.288;2022-11-14T10:23:46;13.63;;;9.63;;
50393;SDS011;36308;46.312;25.288;2022-11-14T10:26:28;16.60;;;11.23;;
50393;SDS011;36308;46.312;25.288;2022-11-14T10:31:51;12.18;;;8.75;;
50393;SDS011;36308;46.312;25.288;2022-11-14T10:34:26;42.45;;;35.38;;
50393;SDS011;36308;46.312;25.288;2022-11-14T10:39:43;14.13;;;8.30;;
50393;SDS011;36308;46.312;25.288;2022-11-14T10:42:24;14.52;;;7.88;;
50393;SDS011;36308;46.312;25.288;2022-11-14T10:47:49;10.63;;;7.20;;
50393;SDS011;36308;46.312;25.288;2022-11-14T10:50:21;10.10;;;7.43;;
50393;SDS011;36308;46.312;25.288;2022-11-14T10:52:53;11.50;;;6.68;;
50393;SDS011;36308;46.312;25.288;2022-11-14T10:55:23;10.65;;;7.60;;
50393;SDS011;36308;46.312;25.288;2022-11-14T10:57:49;11.57;;;7.47;;
50393;SDS011;36308;46.312;25.288;2022-11-14T11:00:15;9.95;;;6.53;;
50393;SDS011;36308;46.312;25.288;2022-11-14T11:05:16;9.30;;;6.13;;
50393;SDS011;36308;46.312;25.288;2022-11-14T11:07:45;11.20;;;6.25;;
50393;SDS011;36308;46.312;25.288;2022-11-14T11:10:35;9.70;;;7.10;;
50393;SDS011;36308;46.312;25.288;2022-11-14T11:14:08;10.45;;;6.55;;
50393;SDS011;36308;46.312;25.288;2022-11-14T11:16:20;11.85;;;6.65;;
50393;SDS011;36308;46.312;25.288;2022-11-14T11:18:47;11.30;;;6.07;;
50393;SDS011;36308;46.312;25.288;2022-11-14T11:21:13;10.90;;;6.53;;
50393;SDS011;36308;46.312;25.288;2022-11-14T11:24:15;10.15;;;6.13;;
50393;SDS011;36308;46.312;25.288;2022-11-14T11:26:32;9.00;;;5.90;;
50393;SDS011;36308;46.312;25.288;2022-11-14T11:29:05;6.20;;;4.25;;
50393;SDS011;36308;46.312;25.288;2022-11-14T11:34:11;8.77;;;5.07;;
50393;SDS011;36308;46.312;25.288;2022-11-14T11:36:39;11.35;;;4.60;;
50393;SDS011;36308;46.312;25.288;2022-11-14T11:39:08;9.32;;;5.13;;
50393;SDS011;36308;46.312;25.288;2022-11-14T11:41:50;6.82;;;4.65;;
50393;SDS011;36308;46.312;25.288;2022-11-14T11:44:19;7.95;;;5.47;;
50393;SDS011;36308;46.312;25.288;2022-11-14T11:51:45;6.43;;;3.60;;
50393;SDS011;36308;46.312;25.288;2022-11-14T11:56:39;6.40;;;3.70;;
50393;SDS011;36308;46.312;25.288;2022-11-14T12:02:02;7.20;;;3.55;;
50393;SDS011;36308;46.312;25.288;2022-11-14T12:04:40;5.38;;;3.15;;
50393;SDS011;36308;46.312;25.288;2022-11-14T12:07:08;6.15;;;3.65;;
50393;SDS011;36308;46.312;25.288;2022-11-14T12:09:39;5.55;;;3.38;;
50393;SDS011;36308;46.312;25.288;2022-11-14T12:12:07;7.25;;;3.33;;
50393;SDS011;36308;46.312;25.288;2022-11-14T12:20:07;4.72;;;3.00;;
50393;SDS011;36308;46.312;25.288;2022-11-14T12:23:01;5.60;;;3.10;;
50393;SDS011;36308;46.312;25.288;2022-11-14T12:25:57;4.50;;;2.83;;
50393;SDS011;36308;46.312;25.288;2022-11-14T12:31:23;3.65;;;3.00;;
50393;SDS011;36308;46.312;25.288;2022-11-14T12:34:17;6.18;;;2.70;;
50393;SDS011;36308;46.312;25.288;2022-11-14T12:39:24;5.45;;;3.22;;
50393;SDS011;36308;46.312;25.288;2022-11-14T12:42:06;6.85;;;4.25;;
50393;SDS011;36308;46.312;25.288;2022-11-14T12:49:35;8.60;;;3.90;;
50393;SDS011;36308;46.312;25.288;2022-11-14T13:00:25;12.02;;;6.55;;
50393;SDS011;36308;46.312;25.288;2022-11-14T13:14:24;5.20;;;3.47;;
50393;SDS011;36308;46.312;25.288;2022-11-14T13:19:58;11.50;;;5.80;;
50393;SDS011;36308;46.312;25.288;2022-11-14T13:22:43;12.25;;;4.75;;
50393;SDS011;36308;46.312;25.288;2022-11-14T13:27:36;6.90;;;3.42;;
50393;SDS011;36308;46.312;25.288;2022-11-14T13:30:02;9.80;;;4.60;;
50393;SDS011;36308;46.312;25.288;2022-11-14T13:47:18;33.20;;;16.10;;
50393;SDS011;36308;46.312;25.288;2022-11-14T13:49:59;49.13;;;21.83;;
50393;SDS011;36308;46.312;25.288;2022-11-14T13:52:31;54.78;;;23.88;;
50393;SDS011;36308;46.312;25.288;2022-11-14T13:54:58;57.80;;;25.35;;
50393;SDS011;36308;46.312;25.288;2022-11-14T13:57:27;59.42;;;28.65;;
50393;SDS011;36308;46.312;25.288;2022-11-14T14:18:16;11.40;;;7.22;;
50393;SDS011;36308;46.312;25.288;2022-11-14T14:20:53;12.23;;;8.35;;
50393;SDS011;36308;46.312;25.288;2022-11-14T14:28:58;16.25;;;10.52;;
50393;SDS011;36308;46.312;25.288;2022-11-14T14:31:33;20.17;;;14.47;;
50393;SDS011;36308;46.312;25.288;2022-11-14T14:34:01;15.55;;;11.27;;
50393;SDS011;36308;46.312;25.288;2022-11-14T14:36:27;13.85;;;9.68;;
50393;SDS011;36308;46.312;25.288;2022-11-14T14:41:46;44.90;;;21.80;;
50393;SDS011;36308;46.312;25.288;2022-11-14T14:44:29;42.17;;;26.17;;
50393;SDS011;36308;46.312;25.288;2022-11-14T14:47:17;52.92;;;34.58;;
50393;SDS011;36308;46.312;25.288;2022-11-14T14:50:01;48.10;;;32.42;;
50393;SDS011;36308;46.312;25.288;2022-11-14T14:52:29;42.72;;;29.23;;
50393;SDS011;36308;46.312;25.288;2022-11-14T14:55:00;44.35;;;27.52;;
50393;SDS011;36308;46.312;25.288;2022-11-14T14:57:27;54.17;;;31.70;;
50393;SDS011;36308;46.312;25.288;2022-11-14T15:00:06;65.70;;;34.63;;
50393;SDS011;36308;46.312;25.288;2022-11-14T15:02:43;66.40;;;34.30;;
50393;SDS011;36308;46.312;25.288;2022-11-14T15:05:09;49.38;;;27.77;;
50393;SDS011;36308;46.312;25.288;2022-11-14T15:07:34;38.78;;;21.65;;
50393;SDS011;36308;46.312;25.288;2022-11-14T15:10:03;32.28;;;19.85;;
50393;SDS011;36308;46.312;25.288;2022-11-14T15:12:31;33.75;;;18.35;;
50393;SDS011;36308;46.312;25.288;2022-11-14T15:14:57;60.58;;;34.65;;
50393;SDS011;36308;46.312;25.288;2022-11-14T15:17:25;74.15;;;41.67;;
50393;SDS011;36308;46.312;25.288;2022-11-14T15:19:51;66.50;;;38.13;;
50393;SDS011;36308;46.312;25.288;2022-11-14T15:24:43;295.73;;;141.95;;
50393;SDS011;36308;46.312;25.288;2022-11-14T15:29:53;108.28;;;57.17;;
50393;SDS011;36308;46.312;25.288;2022-11-14T15:32:24;71.63;;;48.08;;
50393;SDS011;36308;46.312;25.288;2022-11-14T15:40:36;95.55;;;62.78;;
50393;SDS011;36308;46.312;25.288;2022-11-14T15:49:06;75.30;;;43.72;;
50393;SDS011;36308;46.312;25.288;2022-11-14T15:54:23;67.72;;;44.67;;
50393;SDS011;36308;46.312;25.288;2022-11-14T15:56:51;54.83;;;36.60;;
50393;SDS011;36308;46.312;25.288;2022-11-14T15:59:17;50.42;;;35.42;;
50393;SDS011;36308;46.312;25.288;2022-11-14T16:01:43;53.47;;;34.40;;
50393;SDS011;36308;46.312;25.288;2022-11-14T16:04:16;50.95;;;32.20;;
50393;SDS011;36308;46.312;25.288;2022-11-14T16:06:42;54.92;;;33.30;;
50393;SDS011;36308;46.312;25.288;2022-11-14T16:09:15;54.58;;;32.58;;
50393;SDS011;36308;46.312;25.288;2022-11-14T16:11:43;73.07;;;43.80;;
50393;SDS011;36308;46.312;25.288;2022-11-14T16:14:08;102.18;;;59.25;;
50393;SDS011;36308;46.312;25.288;2022-11-14T16:16:34;96.82;;;55.85;;
50393;SDS011;36308;46.312;25.288;2022-11-14T16:18:59;93.75;;;56.05;;
50393;SDS011;36308;46.312;25.288;2022-11-14T16:21:25;85.38;;;54.08;;
50393;SDS011;36308;46.312;25.288;2022-11-14T16:23:50;98.70;;;64.60;;
50393;SDS011;36308;46.312;25.288;2022-11-14T16:26:15;131.57;;;96.88;;
50393;SDS011;36308;46.312;25.288;2022-11-14T16:28:41;139.10;;;102.38;;
50393;SDS011;36308;46.312;25.288;2022-11-14T16:31:10;126.03;;;94.65;;
50393;SDS011;36308;46.312;25.288;2022-11-14T16:33:36;85.10;;;59.60;;
50393;SDS011;36308;46.312;25.288;2022-11-14T16:36:01;58.17;;;42.70;;
50393;SDS011;36308;46.312;25.288;2022-11-14T16:38:27;49.38;;;35.75;;
50393;SDS011;36308;46.312;25.288;2022-11-14T16:40:52;43.50;;;30.88;;
50393;SDS011;36308;46.312;25.288;2022-11-14T16:43:18;46.33;;;32.08;;
50393;SDS011;36308;46.312;25.288;2022-11-14T16:45:43;55.42;;;33.70;;
50393;SDS011;36308;46.312;25.288;2022-11-14T16:48:08;51.15;;;32.03;;
50393;SDS011;36308;46.312;25.288;2022-11-14T16:50:36;52.30;;;32.47;;